createdAt,value
2024-02-05T00:00:03.189Z,8.35
2024-02-05T00:01:05.281Z,8.36
2024-02-05T00:02:07.365Z,8.41
2024-02-05T00:03:10.447Z,8.38
2024-02-05T00:04:16.763Z,8.35
2024-02-05T00:05:18.930Z,8.32
2024-02-05T00:06:20.904Z,8.29
2024-02-05T00:07:23.236Z,8.30
2024-02-05T00:08:25.302Z,8.33
2024-02-05T00:09:27.257Z,8.31
2024-02-05T00:10:29.245Z,8.34
2024-02-05T00:11:31.192Z,8.37
2024-02-05T00:12:33.389Z,8.39
2024-02-05T00:13:35.390Z,8.37
2024-02-05T00:14:37.385Z,8.38
2024-02-05T00:15:39.403Z,8.39
2024-02-05T00:16:41.551Z,8.35
2024-02-05T00:17:46.157Z,8.35
2024-02-05T00:18:48.189Z,8.41
2024-02-05T00:19:50.247Z,8.45
2024-02-05T00:20:53.132Z,8.43
2024-02-05T00:21:55.170Z,8.46
2024-02-05T00:22:57.281Z,8.46
2024-02-05T00:23:59.275Z,8.44
2024-02-05T00:25:02.407Z,8.42
2024-02-05T00:26:04.504Z,8.41
2024-02-05T00:27:06.549Z,8.37
2024-02-05T00:28:09.108Z,8.34
2024-02-05T00:29:11.217Z,8.40
2024-02-05T00:30:14.355Z,8.43
2024-02-05T00:31:17.309Z,8.44
2024-02-05T00:32:19.281Z,8.42
2024-02-05T00:33:21.445Z,8.46
2024-02-05T00:34:23.622Z,8.47
2024-02-05T00:35:25.811Z,8.48
2024-02-05T00:36:28.779Z,8.48
2024-02-05T00:37:30.784Z,8.49
2024-02-05T00:38:32.843Z,8.51
2024-02-05T00:39:34.945Z,8.51
2024-02-05T00:40:36.954Z,8.54
2024-02-05T00:41:38.916Z,8.56
2024-02-05T00:42:40.976Z,8.56
2024-02-05T00:43:42.963Z,8.58
2024-02-05T00:44:44.971Z,8.57
2024-02-05T00:45:47.063Z,8.58
2024-02-05T00:46:50.164Z,8.59
2024-02-05T00:47:52.266Z,8.58
2024-02-05T00:48:55.313Z,8.57
2024-02-05T00:49:57.980Z,8.60
2024-02-05T00:51:00.095Z,8.54
2024-02-05T00:52:02.138Z,8.59
2024-02-05T00:53:04.201Z,8.62
2024-02-05T00:54:06.179Z,8.66
2024-02-05T00:55:08.356Z,8.67
2024-02-05T00:56:10.340Z,8.63
2024-02-05T00:57:12.323Z,8.66
2024-02-05T00:58:14.727Z,8.66
2024-02-05T00:59:16.725Z,8.64
2024-02-05T01:00:19.203Z,8.67
2024-02-05T01:01:21.318Z,8.70
2024-02-05T01:02:24.435Z,8.72
2024-02-05T01:03:26.412Z,8.76
2024-02-05T01:04:31.980Z,8.80
2024-02-05T01:05:34.429Z,8.80
2024-02-05T01:06:36.766Z,8.80
2024-02-05T01:07:39.105Z,8.84
2024-02-05T01:08:41.167Z,8.84
2024-02-05T01:09:43.189Z,8.82
2024-02-05T01:10:45.153Z,8.85
2024-02-05T01:11:47.153Z,8.84
2024-02-05T01:12:52.157Z,8.80
2024-02-05T01:13:54.192Z,8.77
2024-02-05T01:14:56.139Z,8.74
2024-02-05T01:15:58.262Z,8.82
2024-02-05T01:17:00.648Z,8.86
2024-02-05T01:18:04.323Z,8.88
2024-02-05T01:19:06.498Z,8.89
2024-02-05T01:20:12.268Z,8.92
2024-02-05T01:21:14.784Z,8.91
2024-02-05T01:22:16.859Z,8.90
2024-02-05T01:23:19.443Z,8.89
2024-02-05T01:24:21.457Z,8.88
2024-02-05T01:25:23.578Z,8.89
2024-02-05T01:26:25.711Z,8.91
2024-02-05T01:27:27.675Z,8.89
2024-02-05T01:28:29.677Z,8.92
2024-02-05T01:29:31.652Z,8.92
2024-02-05T01:30:33.758Z,8.92
2024-02-05T01:31:36.091Z,8.95
2024-02-05T01:32:38.914Z,8.93
2024-02-05T01:33:42.513Z,8.92
2024-02-05T01:34:44.734Z,8.92
2024-02-05T01:35:46.783Z,8.98
2024-02-05T01:36:48.822Z,8.93
2024-02-05T01:37:50.874Z,8.88
2024-02-05T01:38:52.855Z,8.87
2024-02-05T01:39:54.870Z,8.89
2024-02-05T01:40:56.933Z,8.91
2024-02-05T01:41:59.736Z,8.93
2024-02-05T01:43:02.268Z,8.93
2024-02-05T01:44:04.307Z,8.96
2024-02-05T01:45:06.904Z,8.95
2024-02-05T01:46:09.007Z,8.93
2024-02-05T01:47:11.382Z,8.91
2024-02-05T01:48:13.513Z,8.89
2024-02-05T01:49:15.857Z,8.85
2024-02-05T01:50:18.008Z,8.85
2024-02-05T01:51:19.997Z,8.79
2024-02-05T01:52:22.672Z,8.77
2024-02-05T01:53:24.851Z,8.68
2024-02-05T01:54:26.808Z,8.63
2024-02-05T01:55:28.819Z,8.67
2024-02-05T01:56:32.063Z,8.67
2024-02-05T01:57:34.257Z,8.66
2024-02-05T01:58:36.213Z,8.68
2024-02-05T01:59:38.816Z,8.68
2024-02-05T02:00:40.966Z,8.65
2024-02-05T02:01:43.196Z,8.63
2024-02-05T02:02:45.248Z,8.62
2024-02-05T02:03:47.259Z,8.62
2024-02-05T02:04:49.421Z,8.59
2024-02-05T02:05:51.465Z,8.56
2024-02-05T02:06:53.477Z,8.54
2024-02-05T02:07:58.280Z,8.56
2024-02-05T02:09:03.412Z,8.60
2024-02-05T02:10:05.907Z,8.58
2024-02-05T02:11:08.338Z,8.48
2024-02-05T02:12:10.280Z,8.44
2024-02-05T02:13:14.411Z,8.52
2024-02-05T02:14:17.440Z,8.53
2024-02-05T02:15:19.687Z,8.57
2024-02-05T02:16:26.312Z,8.63
2024-02-05T02:17:29.812Z,8.60
2024-02-05T02:18:31.911Z,8.58
2024-02-05T02:19:38.279Z,8.62
2024-02-05T02:20:47.277Z,8.64
2024-02-05T02:21:52.729Z,8.67
2024-02-05T02:23:03.444Z,8.59
2024-02-05T02:24:08.287Z,8.64
2024-02-05T02:25:11.256Z,8.64
2024-02-05T02:26:13.294Z,8.68
2024-02-05T02:27:15.284Z,8.70
2024-02-05T02:28:17.306Z,8.67
2024-02-05T02:29:19.288Z,8.71
2024-02-05T02:30:21.228Z,8.74
2024-02-05T02:31:24.009Z,8.72
2024-02-05T02:32:31.698Z,8.70
2024-02-05T02:33:36.465Z,8.71
2024-02-05T02:34:38.618Z,8.72
2024-02-05T02:35:46.015Z,8.64
2024-02-05T02:36:56.607Z,8.62
2024-02-05T02:38:09.868Z,8.64
2024-02-05T02:39:17.677Z,8.55
2024-02-05T02:40:19.747Z,8.56
2024-02-05T02:41:25.629Z,8.54
2024-02-05T02:42:27.674Z,8.45
2024-02-05T02:43:29.660Z,8.52
2024-02-05T02:44:31.616Z,8.54
2024-02-05T02:45:33.628Z,8.58
2024-02-05T02:46:35.599Z,8.64
2024-02-05T02:47:37.640Z,8.63
2024-02-05T02:48:39.738Z,8.67
2024-02-05T02:49:41.941Z,8.68
2024-02-05T02:50:46.767Z,8.69
2024-02-05T02:51:48.795Z,8.70
2024-02-05T02:52:50.764Z,8.71
2024-02-05T02:53:52.845Z,8.71
2024-02-05T02:54:54.827Z,8.75
2024-02-05T02:55:56.945Z,8.74
2024-02-05T02:56:58.900Z,8.72
2024-02-05T02:58:00.922Z,8.77
2024-02-05T02:59:03.028Z,8.80
2024-02-05T03:00:06.812Z,8.79
2024-02-05T03:01:09.943Z,8.81
2024-02-05T03:02:12.138Z,8.86
2024-02-05T03:03:14.238Z,8.87
2024-02-05T03:04:16.615Z,8.87
2024-02-05T03:05:18.712Z,8.85
2024-02-05T03:06:20.720Z,8.80
2024-02-05T03:07:22.740Z,8.82
2024-02-05T03:08:25.130Z,8.87
2024-02-05T03:09:27.953Z,8.87
2024-02-05T03:10:29.972Z,8.84
2024-02-05T03:11:31.951Z,8.90
2024-02-05T03:12:34.288Z,8.94
2024-02-05T03:13:36.347Z,8.96
2024-02-05T03:14:38.642Z,8.99
2024-02-05T03:15:40.643Z,8.99
2024-02-05T03:16:42.652Z,9.05
2024-02-05T03:17:44.856Z,9.01
2024-02-05T03:18:46.998Z,9.05
2024-02-05T03:19:49.115Z,9.11
2024-02-05T03:20:51.170Z,9.12
2024-02-05T03:21:53.231Z,9.15
2024-02-05T03:23:02.563Z,9.20
2024-02-05T03:24:10.452Z,9.23
2024-02-05T03:25:13.974Z,9.24
2024-02-05T03:26:16.092Z,9.20
2024-02-05T03:27:18.100Z,9.17
2024-02-05T03:28:20.139Z,9.21
2024-02-05T03:29:22.161Z,9.19
2024-02-05T03:30:24.741Z,9.13
2024-02-05T03:31:26.876Z,9.10
2024-02-05T03:32:28.861Z,9.08
2024-02-05T03:33:30.831Z,9.06
2024-02-05T03:34:32.949Z,9.04
2024-02-05T03:35:34.957Z,9.04
2024-02-05T03:36:36.904Z,8.99
2024-02-05T03:37:39.003Z,8.97
2024-02-05T03:38:41.009Z,9.01
2024-02-05T03:39:43.033Z,9.06
2024-02-05T03:40:45.036Z,9.03
2024-02-05T03:41:47.028Z,9.04
2024-02-05T03:42:49.640Z,9.08
2024-02-05T03:43:51.637Z,9.08
2024-02-05T03:44:53.618Z,9.08
2024-02-05T03:45:55.674Z,9.08
2024-02-05T03:46:57.678Z,9.14
2024-02-05T03:47:59.792Z,9.14
2024-02-05T03:49:02.004Z,9.13
2024-02-05T03:50:05.094Z,9.12
2024-02-05T03:51:07.275Z,9.14
2024-02-05T03:52:09.303Z,9.18
2024-02-05T03:53:11.296Z,9.15
2024-02-05T03:54:13.291Z,9.14
2024-02-05T03:55:15.820Z,9.14
2024-02-05T03:56:19.430Z,9.13
2024-02-05T03:57:21.379Z,9.14
2024-02-05T03:58:23.458Z,9.12
2024-02-05T03:59:25.439Z,9.07
2024-02-05T04:00:27.899Z,9.05
2024-02-05T04:01:31.436Z,9.06
2024-02-05T04:02:33.650Z,9.08
2024-02-05T04:03:35.679Z,9.08
2024-02-05T04:04:38.560Z,9.05
2024-02-05T04:05:40.631Z,9.02
2024-02-05T04:06:42.753Z,9.05
2024-02-05T04:07:44.870Z,9.08
2024-02-05T04:08:46.875Z,9.10
2024-02-05T04:09:50.315Z,9.06
2024-02-05T04:10:57.553Z,9.06
2024-02-05T04:11:59.511Z,9.10
2024-02-05T04:13:01.566Z,9.08
2024-02-05T04:14:03.569Z,9.03
2024-02-05T04:15:05.989Z,9.02
2024-02-05T04:16:14.251Z,8.98
2024-02-05T04:17:17.915Z,9.04
2024-02-05T04:18:19.885Z,9.06
2024-02-05T04:19:21.897Z,9.15
2024-02-05T04:20:23.954Z,9.22
2024-02-05T04:21:25.939Z,9.23
2024-02-05T04:22:27.984Z,9.25
2024-02-05T04:23:29.991Z,9.28
2024-02-05T04:24:32.059Z,9.27
2024-02-05T04:25:34.124Z,9.23
2024-02-05T04:26:38.817Z,9.24
2024-02-05T04:27:40.876Z,9.23
2024-02-05T04:28:42.989Z,9.26
2024-02-05T04:29:45.797Z,9.24
2024-02-05T04:30:51.594Z,9.29
2024-02-05T04:31:53.639Z,9.26
2024-02-05T04:32:56.994Z,9.19
2024-02-05T04:33:59.090Z,9.23
2024-02-05T04:35:01.422Z,9.32
2024-02-05T04:36:03.695Z,9.34
2024-02-05T04:37:05.955Z,9.39
2024-02-05T04:38:08.017Z,9.51
2024-02-05T04:39:12.956Z,9.48
2024-02-05T04:40:15.376Z,9.58
2024-02-05T04:41:17.478Z,9.59
2024-02-05T04:42:19.474Z,9.69
2024-02-05T04:43:21.644Z,9.68
2024-02-05T04:44:23.601Z,9.61
2024-02-05T04:45:25.577Z,9.76
2024-02-05T04:46:27.960Z,9.74
2024-02-05T04:47:29.982Z,9.85
2024-02-05T04:48:32.409Z,9.90
2024-02-05T04:49:34.559Z,9.95
2024-02-05T04:50:36.635Z,9.96
2024-02-05T04:51:38.691Z,9.96
2024-02-05T04:52:40.697Z,10.06
2024-02-05T04:53:42.736Z,10.14
2024-02-05T04:54:47.281Z,10.33
2024-02-05T04:55:49.290Z,10.32
2024-02-05T04:56:51.274Z,10.47
2024-02-05T04:57:53.313Z,10.53
2024-02-05T04:58:55.336Z,10.56
2024-02-05T04:59:57.323Z,10.58
2024-02-05T05:00:59.454Z,10.61
2024-02-05T05:02:01.684Z,10.69
2024-02-05T05:03:04.224Z,10.80
2024-02-05T05:04:06.241Z,10.82
2024-02-05T05:05:11.080Z,11.01
2024-02-05T05:06:13.149Z,11.12
2024-02-05T05:07:15.719Z,11.11
2024-02-05T05:08:17.712Z,11.18
2024-02-05T05:09:19.658Z,11.20
2024-02-05T05:10:24.380Z,11.21
2024-02-05T05:11:26.423Z,11.19
2024-02-05T05:12:28.785Z,11.23
2024-02-05T05:13:30.777Z,11.26
2024-02-05T05:14:32.757Z,11.23
2024-02-05T05:15:37.625Z,11.23
2024-02-05T05:16:40.144Z,11.19
2024-02-05T05:17:46.009Z,11.17
2024-02-05T05:18:48.339Z,11.08
2024-02-05T05:19:50.686Z,11.04
2024-02-05T05:20:52.712Z,11.01
2024-02-05T05:21:56.070Z,10.91
2024-02-05T05:22:58.061Z,10.88
2024-02-05T05:24:00.044Z,10.84
2024-02-05T05:25:02.105Z,10.84
2024-02-05T05:26:04.091Z,10.83
2024-02-05T05:27:06.850Z,10.79
2024-02-05T05:28:09.269Z,10.71
2024-02-05T05:29:13.257Z,10.68
2024-02-05T05:30:16.382Z,10.65
2024-02-05T05:31:18.655Z,10.66
2024-02-05T05:32:20.651Z,10.65
2024-02-05T05:33:22.659Z,10.63
2024-02-05T05:34:25.412Z,10.62
2024-02-05T05:35:27.443Z,10.56
2024-02-05T05:36:29.402Z,10.53
2024-02-05T05:37:31.705Z,10.54
2024-02-05T05:38:33.746Z,10.51
2024-02-05T05:39:36.539Z,10.41
2024-02-05T05:40:38.551Z,10.44
2024-02-05T05:41:40.547Z,10.43
2024-02-05T05:42:42.586Z,10.43
2024-02-05T05:43:44.685Z,10.46
2024-02-05T05:44:46.703Z,10.50
2024-02-05T05:45:49.071Z,10.47
2024-02-05T05:46:51.055Z,10.43
2024-02-05T05:47:53.132Z,10.40
2024-02-05T05:48:58.052Z,10.37
2024-02-05T05:50:00.310Z,10.34
2024-02-05T05:51:02.434Z,10.26
2024-02-05T05:52:04.912Z,10.23
2024-02-05T05:53:06.911Z,10.25
2024-02-05T05:54:11.659Z,10.24
2024-02-05T05:55:13.626Z,10.28
2024-02-05T05:56:16.696Z,10.23
2024-02-05T05:57:18.727Z,10.22
2024-02-05T05:58:20.954Z,10.23
2024-02-05T05:59:23.093Z,10.21
2024-02-05T06:00:25.188Z,10.25
2024-02-05T06:01:30.246Z,10.23
2024-02-05T06:02:32.436Z,10.25
2024-02-05T06:03:34.464Z,10.25
2024-02-05T06:04:37.494Z,10.24
2024-02-05T06:05:39.664Z,10.21
2024-02-05T06:06:41.859Z,10.23
2024-02-05T06:07:46.152Z,10.24
2024-02-05T06:08:48.194Z,10.23
2024-02-05T06:09:50.208Z,10.26
2024-02-05T06:10:52.854Z,10.23
2024-02-05T06:11:54.910Z,10.27
2024-02-05T06:12:56.931Z,10.26
2024-02-05T06:13:59.091Z,10.27
2024-02-05T06:15:01.093Z,10.33
2024-02-05T06:16:03.170Z,10.37
2024-02-05T06:17:05.478Z,10.36
2024-02-05T06:18:08.040Z,10.40
2024-02-05T06:19:10.140Z,10.41
2024-02-05T06:20:15.485Z,10.46
2024-02-05T06:21:19.817Z,10.51
2024-02-05T06:22:21.885Z,10.46
2024-02-05T06:23:24.065Z,10.49
2024-02-05T06:24:26.061Z,10.45
2024-02-05T06:25:28.226Z,10.43
2024-02-05T06:26:30.254Z,10.37
2024-02-05T06:27:32.224Z,10.36
2024-02-05T06:28:34.316Z,10.32
2024-02-05T06:29:37.391Z,10.27
2024-02-05T06:30:44.224Z,10.27
2024-02-05T06:31:46.305Z,10.23
2024-02-05T06:32:48.334Z,10.22
2024-02-05T06:33:50.413Z,10.13
2024-02-05T06:34:52.594Z,10.11
2024-02-05T06:35:54.561Z,10.12
2024-02-05T06:36:56.557Z,10.14
2024-02-05T06:37:58.531Z,10.15
2024-02-05T06:39:01.449Z,10.11
2024-02-05T06:40:03.982Z,10.12
2024-02-05T06:41:09.018Z,10.14
2024-02-05T06:42:11.034Z,10.10
2024-02-05T06:43:13.565Z,10.13
2024-02-05T06:44:18.384Z,10.09
2024-02-05T06:45:22.577Z,10.06
2024-02-05T06:46:24.780Z,10.08
2024-02-05T06:47:27.489Z,10.14
2024-02-05T06:48:29.571Z,10.10
2024-02-05T06:49:31.679Z,10.07
2024-02-05T06:50:33.726Z,10.09
2024-02-05T06:51:35.961Z,10.06
2024-02-05T06:52:38.251Z,10.05
2024-02-05T06:53:40.336Z,10.00
2024-02-05T06:54:42.578Z,9.99
2024-02-05T06:55:44.921Z,10.00
2024-02-05T06:56:50.397Z,10.02
2024-02-05T06:57:55.167Z,10.03
2024-02-05T06:58:59.015Z,9.98
2024-02-05T07:00:01.744Z,9.95
2024-02-05T07:01:04.470Z,9.97
2024-02-05T07:02:10.467Z,9.99
2024-02-05T07:03:14.058Z,9.94
2024-02-05T07:04:17.427Z,9.98
2024-02-05T07:05:21.852Z,10.00
2024-02-05T07:06:24.983Z,10.03
2024-02-05T07:07:29.178Z,10.07
2024-02-05T07:08:31.418Z,10.10
2024-02-05T07:09:34.219Z,10.12
2024-02-05T07:10:36.669Z,10.13
2024-02-05T07:11:39.189Z,10.11
2024-02-05T07:12:41.538Z,10.13
2024-02-05T07:13:43.598Z,10.16
2024-02-05T07:14:45.750Z,10.11
2024-02-05T07:15:47.793Z,10.12
2024-02-05T07:16:49.930Z,10.12
2024-02-05T07:17:52.070Z,10.15
2024-02-05T07:18:54.669Z,10.14
2024-02-05T07:19:59.706Z,10.11
2024-02-05T07:21:06.380Z,10.15
2024-02-05T07:22:14.642Z,10.18
2024-02-05T07:23:16.766Z,10.16
2024-02-05T07:24:19.024Z,10.22
2024-02-05T07:25:22.041Z,10.24
2024-02-05T07:26:24.116Z,10.31
2024-02-05T07:27:29.729Z,10.37
2024-02-05T07:28:33.786Z,10.37
2024-02-05T07:29:35.875Z,10.43
2024-02-05T07:30:37.933Z,10.46
2024-02-05T07:31:39.990Z,10.42
2024-02-05T07:32:42.638Z,10.42
2024-02-05T07:33:44.776Z,10.40
2024-02-05T07:34:49.806Z,10.43
2024-02-05T07:35:51.883Z,10.45
2024-02-05T07:36:53.986Z,10.54
2024-02-05T07:37:56.037Z,10.52
2024-02-05T07:38:58.140Z,10.55
2024-02-05T07:40:00.530Z,10.63
2024-02-05T07:41:08.377Z,10.71
2024-02-05T07:42:11.110Z,10.88
2024-02-05T07:43:13.522Z,11.04
2024-02-05T07:44:15.699Z,11.19
2024-02-05T07:45:17.882Z,11.34
2024-02-05T07:46:21.735Z,11.39
2024-02-05T07:47:24.232Z,11.39
2024-02-05T07:48:28.960Z,11.49
2024-02-05T07:49:31.182Z,11.54
2024-02-05T07:50:33.243Z,11.54
2024-02-05T07:51:35.324Z,11.60
2024-02-05T07:52:37.383Z,11.75
2024-02-05T07:53:42.258Z,12.03
2024-02-05T07:54:44.715Z,12.31
2024-02-05T07:55:46.731Z,12.37
2024-02-05T07:56:48.983Z,12.84
2024-02-05T07:57:51.567Z,13.41
2024-02-05T07:58:53.762Z,13.76
2024-02-05T07:59:56.954Z,13.93
2024-02-05T08:00:59.276Z,13.97
2024-02-05T08:02:01.741Z,14.42
2024-02-05T08:03:04.725Z,14.61
2024-02-05T08:04:07.098Z,14.93
2024-02-05T08:05:09.547Z,15.39
2024-02-05T08:06:19.391Z,15.72
2024-02-05T08:07:21.541Z,15.61
2024-02-05T08:08:24.145Z,15.41
2024-02-05T08:09:28.101Z,15.55
2024-02-05T08:10:30.196Z,15.13
2024-02-05T08:11:32.560Z,14.84
2024-02-05T08:12:34.735Z,14.65
2024-02-05T08:13:37.040Z,14.48
2024-02-05T08:14:39.676Z,14.53
2024-02-05T08:15:47.500Z,14.49
2024-02-05T08:16:49.595Z,14.49
2024-02-05T08:17:51.766Z,14.60
2024-02-05T08:18:54.042Z,14.76
2024-02-05T08:19:56.317Z,14.88
2024-02-05T08:20:58.465Z,15.13
2024-02-05T08:22:02.250Z,14.96
2024-02-05T08:23:04.313Z,15.14
2024-02-05T08:24:06.523Z,14.93
2024-02-05T08:25:09.217Z,14.74
2024-02-05T08:26:13.185Z,14.70
2024-02-05T08:27:15.534Z,14.62
2024-02-05T08:28:17.581Z,14.67
2024-02-05T08:29:23.202Z,14.78
2024-02-05T08:30:25.230Z,14.99
2024-02-05T08:31:27.579Z,15.11
2024-02-05T08:32:29.985Z,15.19
2024-02-05T08:33:33.188Z,15.00
2024-02-05T08:34:35.634Z,14.72
2024-02-05T08:35:37.916Z,14.53
2024-02-05T08:36:40.149Z,14.45
2024-02-05T08:37:42.231Z,14.27
2024-02-05T08:38:44.544Z,14.20
2024-02-05T08:39:46.739Z,14.05
2024-02-05T08:40:48.876Z,14.20
2024-02-05T08:41:50.943Z,14.12
2024-02-05T08:42:52.984Z,13.99
2024-02-05T08:43:55.137Z,13.79
2024-02-05T08:44:59.043Z,13.74
2024-02-05T08:46:05.456Z,13.66
2024-02-05T08:47:10.185Z,13.64
2024-02-05T08:48:12.582Z,13.70
2024-02-05T08:49:14.870Z,13.65
2024-02-05T08:50:17.098Z,13.59
2024-02-05T08:51:19.836Z,13.57
2024-02-05T08:52:24.290Z,13.48
2024-02-05T08:53:26.471Z,13.57
2024-02-05T08:54:28.844Z,13.67
2024-02-05T08:55:30.935Z,13.58
2024-02-05T08:56:34.154Z,13.72
2024-02-05T08:57:36.225Z,13.86
2024-02-05T08:58:47.044Z,13.91
2024-02-05T08:59:52.182Z,14.01
2024-02-05T09:00:57.067Z,14.08
2024-02-05T09:01:59.260Z,14.19
2024-02-05T09:03:06.205Z,14.32
2024-02-05T09:04:10.096Z,14.26
2024-02-05T09:05:12.171Z,14.34
2024-02-05T09:06:14.314Z,14.36
2024-02-05T09:07:16.605Z,14.45
2024-02-05T09:08:19.434Z,14.51
2024-02-05T09:09:21.476Z,14.63
2024-02-05T09:10:24.413Z,14.93
2024-02-05T09:11:34.808Z,15.02
2024-02-05T09:12:38.582Z,15.12
2024-02-05T09:13:40.711Z,15.30
2024-02-05T09:14:42.735Z,15.54
2024-02-05T09:15:45.164Z,15.68
2024-02-05T09:16:47.399Z,15.95
2024-02-05T09:17:50.227Z,16.28
2024-02-05T09:18:52.437Z,16.53
2024-02-05T09:19:54.589Z,16.66
2024-02-05T09:20:56.730Z,16.86
2024-02-05T09:21:59.050Z,16.69
2024-02-05T09:23:01.361Z,16.51
2024-02-05T09:24:03.481Z,16.38
2024-02-05T09:25:07.249Z,16.37
2024-02-05T09:26:09.433Z,16.45
2024-02-05T09:27:12.266Z,16.20
2024-02-05T09:28:14.944Z,16.11
2024-02-05T09:29:17.173Z,16.03
2024-02-05T09:30:21.845Z,15.97
2024-02-05T09:31:23.881Z,15.92
2024-02-05T09:32:26.000Z,15.97
2024-02-05T09:33:28.001Z,16.11
2024-02-05T09:34:30.108Z,16.24
2024-02-05T09:35:32.319Z,16.37
2024-02-05T09:36:37.030Z,16.81
2024-02-05T09:37:39.083Z,16.79
2024-02-05T09:38:41.117Z,16.93
2024-02-05T09:39:43.191Z,17.16
2024-02-05T09:40:45.367Z,17.50
2024-02-05T09:41:47.414Z,17.78
2024-02-05T09:42:51.124Z,18.07
2024-02-05T09:43:53.203Z,18.28
2024-02-05T09:44:55.885Z,18.30
2024-02-05T09:46:03.070Z,18.39
2024-02-05T09:47:05.278Z,18.39
2024-02-05T09:48:08.613Z,18.50
2024-02-05T09:49:12.061Z,18.22
2024-02-05T09:50:16.118Z,18.16
2024-02-05T09:51:18.344Z,17.99
2024-02-05T09:52:20.779Z,17.86
2024-02-05T09:53:22.870Z,17.72
2024-02-05T09:54:24.979Z,17.61
2024-02-05T09:55:29.189Z,17.56
2024-02-05T09:56:34.645Z,17.50
2024-02-05T09:57:41.110Z,17.38
2024-02-05T09:58:43.175Z,17.39
2024-02-05T09:59:48.209Z,17.19
2024-02-05T10:00:50.749Z,16.95
2024-02-05T10:01:52.801Z,16.90
2024-02-05T10:02:55.260Z,16.89
2024-02-05T10:03:57.842Z,16.78
2024-02-05T10:05:00.558Z,16.80
2024-02-05T10:06:05.471Z,16.79
2024-02-05T10:07:17.396Z,16.63
2024-02-05T10:08:19.618Z,16.61
2024-02-05T10:09:22.443Z,16.58
2024-02-05T10:10:24.486Z,16.51
2024-02-05T10:11:26.940Z,16.49
2024-02-05T10:12:28.984Z,16.40
2024-02-05T10:13:31.132Z,16.31
2024-02-05T10:14:33.590Z,16.24
2024-02-05T10:15:35.543Z,16.15
2024-02-05T10:16:38.889Z,16.06
2024-02-05T10:17:40.878Z,16.14
2024-02-05T10:18:42.980Z,16.06
2024-02-05T10:19:47.224Z,16.02
2024-02-05T10:20:49.343Z,15.98
2024-02-05T10:21:51.589Z,16.09
2024-02-05T10:22:53.618Z,16.09
2024-02-05T10:23:55.923Z,16.08
2024-02-05T10:25:01.090Z,16.23
2024-02-05T10:26:03.438Z,16.28
2024-02-05T10:27:05.497Z,16.41
2024-02-05T10:28:08.338Z,16.42
2024-02-05T10:29:14.188Z,16.49
2024-02-05T10:30:19.297Z,16.28
2024-02-05T10:31:24.574Z,16.25
2024-02-05T10:32:26.705Z,16.30
2024-02-05T10:33:28.781Z,16.20
2024-02-05T10:34:31.077Z,16.20
2024-02-05T10:35:33.083Z,16.08
2024-02-05T10:36:35.033Z,16.18
2024-02-05T10:37:37.285Z,16.07
2024-02-05T10:38:39.426Z,16.00
2024-02-05T10:39:41.577Z,15.97
2024-02-05T10:40:43.812Z,16.13
2024-02-05T10:41:45.785Z,16.21
2024-02-05T10:42:47.805Z,16.38
2024-02-05T10:43:52.671Z,16.30
2024-02-05T10:44:54.713Z,16.34
2024-02-05T10:45:59.649Z,16.48
2024-02-05T10:47:02.586Z,16.54
2024-02-05T10:48:05.617Z,16.70
2024-02-05T10:49:09.295Z,16.99
2024-02-05T10:50:15.515Z,17.04
2024-02-05T10:51:17.814Z,17.11
2024-02-05T10:52:20.009Z,17.05
2024-02-05T10:53:24.232Z,17.21
2024-02-05T10:54:26.754Z,17.12
2024-02-05T10:55:28.877Z,16.99
2024-02-05T10:56:31.961Z,17.01
2024-02-05T10:57:39.047Z,17.05
2024-02-05T10:58:43.227Z,16.97
2024-02-05T10:59:45.204Z,16.94
2024-02-05T11:00:47.365Z,16.88
2024-02-05T11:01:50.045Z,16.93
2024-02-05T11:02:55.780Z,16.92
2024-02-05T11:03:59.193Z,16.99
2024-02-05T11:05:04.091Z,16.99
2024-02-05T11:06:07.071Z,16.81
2024-02-05T11:07:09.786Z,16.85
2024-02-05T11:08:27.471Z,16.75
2024-02-05T11:09:30.017Z,16.51
2024-02-05T11:10:33.625Z,16.52
2024-02-05T11:11:37.548Z,16.36
2024-02-05T11:12:39.892Z,16.25
2024-02-05T11:13:53.390Z,16.22
2024-02-05T11:14:56.580Z,16.26
2024-02-05T11:16:02.853Z,16.16
2024-02-05T11:17:05.788Z,16.08
2024-02-05T11:18:15.391Z,16.00
2024-02-05T11:19:18.653Z,15.92
2024-02-05T11:20:20.737Z,15.86
2024-02-05T11:21:27.142Z,15.79
2024-02-05T11:22:29.197Z,15.79
2024-02-05T11:23:32.182Z,15.82
2024-02-05T11:24:34.906Z,15.84
2024-02-05T11:25:37.075Z,15.74
2024-02-05T11:26:39.801Z,15.60
2024-02-05T11:27:43.547Z,15.72
2024-02-05T11:28:50.600Z,15.74
2024-02-05T11:29:52.923Z,15.71
2024-02-05T11:31:03.111Z,15.65
2024-02-05T11:32:06.046Z,15.72
2024-02-05T11:33:08.104Z,15.73
2024-02-05T11:34:10.204Z,15.74
2024-02-05T11:35:14.200Z,15.83
2024-02-05T11:36:16.326Z,15.85
2024-02-05T11:37:18.838Z,15.88
2024-02-05T11:38:21.874Z,15.86
2024-02-05T11:39:24.910Z,15.93
2024-02-05T11:40:28.095Z,15.97
2024-02-05T11:41:31.489Z,16.04
2024-02-05T11:42:34.544Z,16.02
2024-02-05T11:43:36.642Z,16.05
2024-02-05T11:44:38.645Z,16.08
2024-02-05T11:45:40.638Z,16.09
2024-02-05T11:46:43.788Z,16.08
2024-02-05T11:47:45.878Z,16.06
2024-02-05T11:48:48.426Z,16.10
2024-02-05T11:49:50.824Z,16.09
2024-02-05T11:50:52.934Z,16.12
2024-02-05T11:51:54.928Z,16.19
2024-02-05T11:52:57.014Z,16.11
2024-02-05T11:54:02.025Z,16.09
2024-02-05T11:55:04.259Z,16.10
2024-02-05T11:56:09.532Z,16.06
2024-02-05T11:57:11.509Z,15.99
2024-02-05T11:58:13.852Z,15.92
2024-02-05T11:59:15.866Z,16.03
2024-02-05T12:00:17.920Z,15.93
2024-02-05T12:01:20.031Z,15.92
2024-02-05T12:02:22.341Z,15.86
2024-02-05T12:03:24.732Z,15.92
2024-02-05T12:04:26.902Z,15.89
2024-02-05T12:05:30.811Z,15.85
2024-02-05T12:06:33.285Z,15.88
2024-02-05T12:07:35.725Z,15.87
2024-02-05T12:08:38.089Z,15.91
2024-02-05T12:09:40.130Z,15.95
2024-02-05T12:10:42.137Z,15.86
2024-02-05T12:11:44.246Z,15.88
2024-02-05T12:12:47.342Z,15.91
2024-02-05T12:14:12.135Z,15.87
2024-02-05T12:15:20.789Z,15.69
2024-02-05T12:16:26.322Z,15.69
2024-02-05T12:17:29.790Z,15.72
2024-02-05T12:18:31.813Z,15.66
2024-02-05T12:19:34.029Z,15.72
2024-02-05T12:20:36.328Z,15.72
2024-02-05T12:21:38.457Z,15.68
2024-02-05T12:22:40.526Z,15.67
2024-02-05T12:23:46.492Z,15.76
2024-02-05T12:24:48.490Z,15.74
2024-02-05T12:25:51.093Z,15.82
2024-02-05T12:26:53.151Z,15.87
2024-02-05T12:27:55.201Z,15.93
2024-02-05T12:28:57.978Z,15.94
2024-02-05T12:30:07.201Z,16.02
2024-02-05T12:31:09.369Z,16.09
2024-02-05T12:32:11.451Z,16.24
2024-02-05T12:33:17.317Z,16.38
2024-02-05T12:34:19.847Z,16.53
2024-02-05T12:35:22.346Z,16.68
2024-02-05T12:36:24.672Z,16.88
2024-02-05T12:37:27.488Z,17.08
2024-02-05T12:38:31.520Z,17.31
2024-02-05T12:39:33.932Z,17.48
2024-02-05T12:40:36.024Z,17.60
2024-02-05T12:41:38.010Z,17.66
2024-02-05T12:42:40.306Z,17.70
2024-02-05T12:43:42.593Z,17.88
2024-02-05T12:44:53.160Z,18.00
2024-02-05T12:46:03.038Z,18.28
2024-02-05T12:47:07.584Z,18.35
2024-02-05T12:48:09.621Z,18.31
2024-02-05T12:49:11.736Z,18.18
2024-02-05T12:50:13.869Z,18.25
2024-02-05T12:51:15.991Z,18.26
2024-02-05T12:52:19.172Z,18.20
2024-02-05T12:53:21.704Z,18.10
2024-02-05T12:54:23.720Z,18.08
2024-02-05T12:55:26.193Z,17.87
2024-02-05T12:56:28.442Z,17.79
2024-02-05T12:57:30.432Z,17.74
2024-02-05T12:58:32.465Z,17.64
2024-02-05T12:59:34.865Z,17.62
2024-02-05T13:00:37.158Z,17.55
2024-02-05T13:01:39.266Z,17.56
2024-02-05T13:02:41.312Z,17.54
2024-02-05T13:03:43.425Z,17.46
2024-02-05T13:04:48.082Z,17.40
2024-02-05T13:05:50.470Z,17.44
2024-02-05T13:07:03.455Z,17.61
2024-02-05T13:08:08.827Z,17.58
2024-02-05T13:09:10.824Z,17.60
2024-02-05T13:10:14.784Z,17.52
2024-02-05T13:11:16.928Z,17.59
2024-02-05T13:12:19.299Z,17.71
2024-02-05T13:13:24.876Z,17.82
2024-02-05T13:14:29.561Z,17.76
2024-02-05T13:15:31.556Z,17.80
2024-02-05T13:16:33.684Z,17.80
2024-02-05T13:17:35.733Z,17.75
2024-02-05T13:18:37.850Z,17.75
2024-02-05T13:19:40.340Z,17.71
2024-02-05T13:20:42.958Z,17.75
2024-02-05T13:21:44.976Z,17.67
2024-02-05T13:22:49.466Z,17.71
2024-02-05T13:23:51.463Z,17.69
2024-02-05T13:24:53.445Z,17.72
2024-02-05T13:25:55.470Z,17.64
2024-02-05T13:26:57.510Z,17.56
2024-02-05T13:27:59.543Z,17.51
2024-02-05T13:29:01.546Z,17.56
2024-02-05T13:30:06.955Z,17.62
2024-02-05T13:31:09.244Z,17.64
2024-02-05T13:32:11.954Z,17.67
2024-02-05T13:33:14.565Z,17.76
2024-02-05T13:34:22.577Z,17.86
2024-02-05T13:35:24.919Z,17.87
2024-02-05T13:36:26.911Z,17.87
2024-02-05T13:37:29.028Z,17.78
2024-02-05T13:38:31.236Z,17.80
2024-02-05T13:39:33.228Z,17.79